Time;durP1;ratioP1;P1;durP2;ratioP2;P2;SDS_P1;SDS_P2;PMS_P1;PMS_P2;Temp;Humidity;BMP_temperature;BMP_pressure;BME280_temperature;BME280_humidity;BME280_pressure;Samples;Min_cycle;Max_cycle;Signal;HPM_P1;HPM_P2
2023/10/30 00:00:29;;;;;;;;;;;12.70;99.90;;;;;;7333718;19;109161;-88
2023/10/30 00:02:56;;;;;;;;;;;12.70;99.90;;;;;;7332984;19;110279;-88
2023/10/30 00:05:23;;;;;;;;;;;12.70;99.90;;;;;;7330632;19;112863;-88
2023/10/30 00:07:50;;;;;;;;;;;12.70;99.90;;;;;;7331957;19;109265;-88
2023/10/30 00:10:17;;;;;;;;;;;12.70;99.90;;;;;;7335915;19;110210;-88
2023/10/30 00:12:44;;;;;;;;;;;12.70;99.90;;;;;;7337379;19;109819;-88
2023/10/30 00:15:11;;;;;;;;;;;12.80;99.90;;;;;;7329707;19;112472;-88
2023/10/30 00:17:39;;;;;;;;;;;12.70;99.90;;;;;;7332675;19;109346;-88
2023/10/30 00:20:06;;;;;;;;;;;12.70;99.90;;;;;;7327621;19;109805;-89
2023/10/30 00:22:33;;;;;;;;;;;12.70;99.90;;;;;;7325016;19;109370;-88
2023/10/30 00:25:02;;;;;;;;;;;12.70;99.90;;;;;;7324933;19;109135;-88
2023/10/30 00:27:30;;;;;;;;;;;12.70;99.90;;;;;;7328078;19;109928;-78
2023/10/30 00:29:57;;;;;;;;;;;12.70;99.90;;;;;;7331587;19;109642;-77
2023/10/30 00:32:24;;;;;;;;;;;12.70;99.90;;;;;;7331825;19;108977;-78
2023/10/30 00:34:52;;;;;;;;;;;12.70;99.90;;;;;;7337241;19;108962;-77
2023/10/30 00:37:19;;;;;;;;;;;12.70;99.90;;;;;;7326341;19;109961;-77
2023/10/30 00:39:46;;;;;;;;;;;12.70;99.90;;;;;;7333804;19;111197;-77
2023/10/30 00:42:14;;;;;;;;;;;12.70;99.90;;;;;;7330118;19;111957;-77
2023/10/30 00:44:41;;;;;;;;;;;12.80;99.90;;;;;;7331697;19;108995;-76
2023/10/30 00:47:08;;;;;;;;;;;12.80;99.90;;;;;;7331792;19;109055;-76
2023/10/30 00:49:35;;;;;;;;;;;12.70;99.90;;;;;;7334630;19;110539;-77
2023/10/30 00:52:03;;;;;;;;;;;12.70;99.90;;;;;;7332782;19;108868;-76
2023/10/30 00:54:30;;;;;;;;;;;12.80;99.90;;;;;;7329801;19;110863;-76
2023/10/30 00:56:57;;;;;;;;;;;12.80;99.90;;;;;;7330314;19;110266;-77
2023/10/30 00:59:24;;;;;;;;;;;12.80;99.90;;;;;;7327874;19;110068;-77
2023/10/30 01:01:51;;;;;;;;;;;12.80;99.90;;;;;;7326725;19;109796;-78
2023/10/30 01:04:19;;;;;;;;;;;12.80;99.90;;;;;;7328609;19;109290;-77
2023/10/30 01:06:46;;;;;;;;;;;12.80;99.90;;;;;;7327868;19;109760;-76
2023/10/30 01:09:14;;;;;;;;;;;12.80;99.90;;;;;;7333724;19;113587;-80
2023/10/30 01:11:41;;;;;;;;;;;12.80;99.90;;;;;;7339339;19;111052;-81
2023/10/30 01:14:08;;;;;;;;;;;12.80;99.90;;;;;;7337918;19;111774;-81
2023/10/30 01:16:35;;;;;;;;;;;12.80;99.90;;;;;;7335277;19;110303;-80
2023/10/30 01:19:02;;;;;;;;;;;12.80;99.90;;;;;;7343162;19;109880;-79
2023/10/30 01:21:29;;;;;;;;;;;12.80;99.90;;;;;;7335994;19;110297;-79
2023/10/30 01:23:56;;;;;;;;;;;12.80;99.90;;;;;;7335575;19;109448;-77
2023/10/30 01:26:23;;;;;;;;;;;12.90;99.90;;;;;;7334706;19;112939;-77
2023/10/30 01:28:51;;;;;;;;;;;12.90;99.90;;;;;;7338380;19;109832;-77
2023/10/30 01:31:18;;;;;;;;;;;12.90;99.90;;;;;;7335283;19;108984;-77
2023/10/30 01:33:45;;;;;;;;;;;12.90;99.90;;;;;;7336927;19;110764;-77
2023/10/30 01:36:12;;;;;;;;;;;12.90;99.90;;;;;;7332034;19;110912;-76
2023/10/30 01:38:40;;;;;;;;;;;12.90;99.90;;;;;;7339263;19;108961;-76
2023/10/30 01:41:07;;;;;;;;;;;12.90;99.90;;;;;;7339123;19;108989;-77
2023/10/30 01:43:35;;;;;;;;;;;12.90;99.90;;;;;;7335448;19;108673;-77
2023/10/30 01:46:03;;;;;;;;;;;12.90;99.90;;;;;;7333789;19;109091;-76
2023/10/30 01:48:31;;;;;;;;;;;12.90;99.90;;;;;;7335295;19;112258;-76
2023/10/30 01:50:59;;;;;;;;;;;12.90;99.90;;;;;;7332870;19;110092;-77
2023/10/30 01:53:27;;;;;;;;;;;12.90;99.90;;;;;;7333904;19;110684;-76
2023/10/30 01:55:55;;;;;;;;;;;12.90;99.90;;;;;;7337703;19;109075;-76
2023/10/30 01:58:22;;;;;;;;;;;12.90;99.90;;;;;;7338052;19;109126;-76
2023/10/30 02:00:50;;;;;;;;;;;12.90;99.90;;;;;;7334058;19;109548;-76
2023/10/30 02:03:17;;;;;;;;;;;12.80;99.90;;;;;;7338454;19;112494;-76
2023/10/30 02:05:47;;;;;;;;;;;12.80;99.90;;;;;;7336735;19;109163;-77
2023/10/30 02:08:15;;;;;;;;;;;12.80;99.90;;;;;;7329352;19;110164;-76
2023/10/30 02:10:42;;;;;;;;;;;12.80;99.90;;;;;;7337065;19;108813;-77
2023/10/30 02:13:10;;;;;;;;;;;12.80;99.90;;;;;;7338298;19;108667;-77
2023/10/30 02:15:38;;;;;;;;;;;12.80;99.90;;;;;;7331942;19;112029;-77
2023/10/30 02:18:05;;;;;;;;;;;12.80;99.90;;;;;;7336607;19;108779;-76
2023/10/30 02:20:34;;;;;;;;;;;12.80;99.90;;;;;;7332135;19;109708;-77
2023/10/30 02:23:01;;;;;;;;;;;12.80;99.90;;;;;;7338965;19;109877;-76
2023/10/30 02:25:30;;;;;;;;;;;12.80;99.90;;;;;;7332119;19;110680;-78
2023/10/30 02:27:57;;;;;;;;;;;12.80;99.90;;;;;;7335915;19;111002;-76
2023/10/30 02:30:26;;;;;;;;;;;12.80;99.90;;;;;;7334693;19;109193;-76
2023/10/30 02:32:53;;;;;;;;;;;12.80;99.90;;;;;;7333873;19;108457;-77
2023/10/30 02:35:21;;;;;;;;;;;12.80;99.90;;;;;;7335521;19;109662;-77
2023/10/30 02:37:48;;;;;;;;;;;12.80;99.90;;;;;;7333181;19;108910;-76
2023/10/30 02:40:15;;;;;;;;;;;12.80;99.90;;;;;;7334289;19;109352;-76
2023/10/30 02:42:43;;;;;;;;;;;12.80;99.90;;;;;;7330181;19;109720;-75
2023/10/30 02:45:10;;;;;;;;;;;12.80;99.90;;;;;;7341402;19;109189;-77
2023/10/30 02:47:37;;;;;;;;;;;12.80;99.90;;;;;;7333850;19;110602;-77
2023/10/30 02:50:05;;;;;;;;;;;12.80;99.90;;;;;;7334479;19;109964;-77
2023/10/30 02:52:35;;;;;;;;;;;12.80;99.90;;;;;;7332252;19;109338;-76
2023/10/30 02:55:03;;;;;;;;;;;12.80;99.90;;;;;;7331610;19;109921;-77
2023/10/30 02:57:30;;;;;;;;;;;12.80;99.90;;;;;;7329408;19;109613;-76
2023/10/30 02:59:57;;;;;;;;;;;12.80;99.90;;;;;;7333049;19;109356;-76
2023/10/30 03:02:25;;;;;;;;;;;12.80;99.90;;;;;;7331384;19;110814;-76
2023/10/30 03:04:52;;;;;;;;;;;12.80;99.90;;;;;;7334341;19;109908;-77
2023/10/30 03:07:19;;;;;;;;;;;12.80;99.90;;;;;;7332923;19;112013;-77
2023/10/30 03:09:46;;;;;;;;;;;12.80;99.90;;;;;;7334647;19;108491;-76
2023/10/30 03:12:13;;;;;;;;;;;12.80;99.90;;;;;;7332394;19;112732;-77
2023/10/30 03:14:41;;;;;;;;;;;12.80;99.90;;;;;;7320859;19;110197;-76
2023/10/30 03:17:08;;;;;;;;;;;12.80;99.90;;;;;;7328023;19;109253;-77
2023/10/30 03:19:36;;;;;;;;;;;12.80;99.90;;;;;;7333706;19;110764;-76
2023/10/30 03:22:03;;;;;;;;;;;12.80;99.90;;;;;;7332959;19;110450;-76
2023/10/30 03:24:30;;;;;;;;;;;12.80;99.90;;;;;;7331883;19;109088;-76
2023/10/30 03:26:58;;;;;;;;;;;12.80;99.90;;;;;;7335256;19;109935;-76
2023/10/30 03:29:25;;;;;;;;;;;12.80;99.90;;;;;;7333435;19;109140;-76
2023/10/30 03:31:54;;;;;;;;;;;12.70;99.90;;;;;;7330380;19;109300;-77
2023/10/30 03:34:22;;;;;;;;;;;12.70;99.90;;;;;;7327435;19;109215;-76
2023/10/30 03:36:51;;;;;;;;;;;12.70;99.90;;;;;;7331219;19;108493;-76
2023/10/30 03:39:18;;;;;;;;;;;12.70;99.90;;;;;;7328799;19;109729;-76
2023/10/30 03:41:45;;;;;;;;;;;12.70;99.90;;;;;;7328763;19;110248;-76
2023/10/30 03:44:12;;;;;;;;;;;12.70;99.90;;;;;;7327461;19;108938;-76
2023/10/30 03:46:39;;;;;;;;;;;12.70;99.90;;;;;;7333031;19;109075;-76
2023/10/30 03:49:06;;;;;;;;;;;12.60;99.90;;;;;;7327240;19;109592;-76
2023/10/30 03:51:34;;;;;;;;;;;12.60;99.90;;;;;;7340020;19;113663;-76
2023/10/30 03:54:01;;;;;;;;;;;12.60;99.90;;;;;;7329229;19;109994;-76
2023/10/30 03:56:28;;;;;;;;;;;12.60;99.90;;;;;;7329966;19;109121;-76
2023/10/30 03:58:56;;;;;;;;;;;12.60;99.90;;;;;;7330667;19;109653;-77
2023/10/30 04:01:23;;;;;;;;;;;12.60;99.90;;;;;;7327004;19;110135;-76
2023/10/30 04:03:50;;;;;;;;;;;12.60;99.90;;;;;;7334600;19;110432;-76
2023/10/30 04:06:18;;;;;;;;;;;12.60;99.90;;;;;;7332135;19;109212;-76
2023/10/30 04:08:45;;;;;;;;;;;12.60;99.90;;;;;;7328187;19;110484;-76
2023/10/30 04:11:13;;;;;;;;;;;12.50;99.90;;;;;;7330377;19;110945;-76
2023/10/30 04:13:40;;;;;;;;;;;12.60;99.90;;;;;;7333757;19;109689;-76
2023/10/30 04:16:11;;;;;;;;;;;12.50;99.90;;;;;;7328521;19;108800;-76
2023/10/30 04:18:38;;;;;;;;;;;12.50;99.90;;;;;;7332966;19;109325;-77
2023/10/30 04:21:05;;;;;;;;;;;12.50;99.90;;;;;;7330771;19;110364;-76
2023/10/30 04:23:33;;;;;;;;;;;12.50;99.90;;;;;;7332355;19;108834;-76
2023/10/30 04:26:00;;;;;;;;;;;12.50;99.90;;;;;;7332532;19;111143;-76
2023/10/30 04:28:27;;;;;;;;;;;12.50;99.90;;;;;;7332774;19;110339;-76
2023/10/30 04:30:54;;;;;;;;;;;12.50;99.90;;;;;;7331534;19;109226;-76
2023/10/30 04:33:21;;;;;;;;;;;12.40;99.90;;;;;;7335496;19;109207;-76
2023/10/30 04:35:48;;;;;;;;;;;12.40;99.90;;;;;;7329774;19;109839;-76
2023/10/30 04:38:16;;;;;;;;;;;12.40;99.90;;;;;;7329408;19;110409;-75
2023/10/30 04:40:43;;;;;;;;;;;12.30;99.90;;;;;;7326497;19;112841;-76
2023/10/30 04:43:10;;;;;;;;;;;12.30;99.90;;;;;;7334496;19;111049;-76
2023/10/30 04:45:37;;;;;;;;;;;12.30;99.90;;;;;;7332390;19;110387;-76
2023/10/30 04:48:05;;;;;;;;;;;12.20;99.90;;;;;;7337814;19;110409;-76
2023/10/30 04:50:32;;;;;;;;;;;12.20;99.90;;;;;;7335719;19;111378;-76
2023/10/30 04:52:59;;;;;;;;;;;12.10;99.90;;;;;;7339465;19;110240;-76
2023/10/30 04:55:27;;;;;;;;;;;12.10;99.90;;;;;;7337781;19;109507;-77
2023/10/30 04:57:54;;;;;;;;;;;12.10;99.90;;;;;;7336471;19;110261;-76
2023/10/30 05:00:21;;;;;;;;;;;12.10;99.90;;;;;;7332753;19;109624;-76
2023/10/30 05:02:48;;;;;;;;;;;12.10;99.90;;;;;;7339283;19;108596;-77
2023/10/30 05:05:15;;;;;;;;;;;12.10;99.90;;;;;;7336599;19;110226;-76
2023/10/30 05:07:44;;;;;;;;;;;12.10;99.90;;;;;;7334924;19;111845;-76
2023/10/30 05:10:14;;;;;;;;;;;12.00;99.90;;;;;;7338830;19;109581;-77
2023/10/30 05:12:41;;;;;;;;;;;12.00;99.90;;;;;;7333743;19;109761;-77
2023/10/30 05:15:08;;;;;;;;;;;12.00;99.90;;;;;;7337170;19;110742;-77
2023/10/30 05:17:39;;;;;;;;;;;12.00;99.90;;;;;;7343091;19;110097;-78
2023/10/30 05:20:06;;;;;;;;;;;12.00;99.90;;;;;;7335324;19;110331;-78
2023/10/30 05:22:34;;;;;;;;;;;12.00;99.90;;;;;;7339043;19;109171;-78
2023/10/30 05:25:05;;;;;;;;;;;12.00;99.90;;;;;;7335883;19;109067;-78
2023/10/30 05:27:32;;;;;;;;;;;12.00;99.90;;;;;;7328821;19;109738;-78
2023/10/30 05:30:00;;;;;;;;;;;12.00;99.90;;;;;;7335061;19;108617;-77
2023/10/30 05:32:27;;;;;;;;;;;12.00;99.90;;;;;;7334309;19;109669;-78
2023/10/30 05:34:54;;;;;;;;;;;12.00;99.90;;;;;;7339708;19;109154;-77
2023/10/30 05:37:21;;;;;;;;;;;12.00;99.90;;;;;;7337648;19;110042;-76
2023/10/30 05:39:49;;;;;;;;;;;12.00;99.90;;;;;;7340842;19;108879;-77
2023/10/30 05:42:17;;;;;;;;;;;12.00;99.90;;;;;;7335031;19;108849;-77
2023/10/30 05:44:47;;;;;;;;;;;12.00;99.90;;;;;;7339510;19;108817;-76
2023/10/30 05:47:14;;;;;;;;;;;12.00;99.90;;;;;;7336211;19;113317;-77
2023/10/30 05:49:41;;;;;;;;;;;12.00;99.90;;;;;;7337898;19;108989;-76
2023/10/30 05:52:12;;;;;;;;;;;12.00;99.90;;;;;;7333724;19;108559;-76
2023/10/30 05:54:39;;;;;;;;;;;12.00;99.90;;;;;;7334589;19;110160;-76
2023/10/30 05:57:10;;;;;;;;;;;12.00;99.90;;;;;;7335246;19;108489;-77
2023/10/30 05:59:38;;;;;;;;;;;12.00;99.90;;;;;;7333656;19;110561;-76
2023/10/30 06:02:05;;;;;;;;;;;12.00;99.90;;;;;;7339947;19;110075;-78
2023/10/30 06:04:32;;;;;;;;;;;12.00;99.90;;;;;;7334476;19;111193;-77
2023/10/30 06:06:59;;;;;;;;;;;11.90;99.90;;;;;;7334604;19;109812;-76
2023/10/30 06:09:27;;;;;;;;;;;11.90;99.90;;;;;;7335758;19;108518;-77
2023/10/30 06:11:54;;;;;;;;;;;11.80;99.90;;;;;;7337014;19;110847;-77
2023/10/30 06:14:21;;;;;;;;;;;11.80;99.90;;;;;;7333636;19;110525;-76
2023/10/30 06:16:49;;;;;;;;;;;11.80;99.90;;;;;;7334904;19;109491;-77
2023/10/30 06:19:17;;;;;;;;;;;11.80;99.90;;;;;;7327916;19;110080;-76
2023/10/30 06:21:44;;;;;;;;;;;11.80;99.90;;;;;;7329062;19;110095;-77
2023/10/30 06:24:12;;;;;;;;;;;11.80;99.90;;;;;;7336369;19;110042;-76
2023/10/30 06:26:42;;;;;;;;;;;11.80;99.90;;;;;;7336581;19;109695;-76
2023/10/30 06:29:09;;;;;;;;;;;11.80;99.90;;;;;;7330383;19;109200;-76
2023/10/30 06:31:36;;;;;;;;;;;11.80;99.90;;;;;;7333657;19;110020;-76
2023/10/30 06:34:04;;;;;;;;;;;11.80;99.90;;;;;;7333195;19;110213;-76
2023/10/30 06:36:31;;;;;;;;;;;11.80;99.90;;;;;;7334002;19;109294;-76
2023/10/30 06:39:00;;;;;;;;;;;11.70;99.90;;;;;;7330723;19;109639;-76
2023/10/30 06:41:27;;;;;;;;;;;11.70;99.90;;;;;;7331930;19;111522;-76
2023/10/30 06:43:55;;;;;;;;;;;11.70;99.90;;;;;;7340270;19;108370;-77
2023/10/30 06:46:22;;;;;;;;;;;11.70;99.90;;;;;;7329089;19;109451;-76
2023/10/30 06:48:49;;;;;;;;;;;11.70;99.90;;;;;;7335349;19;109593;-76
2023/10/30 06:51:16;;;;;;;;;;;11.70;99.90;;;;;;7330582;19;110190;-77
2023/10/30 06:53:43;;;;;;;;;;;11.70;99.90;;;;;;7331557;19;110330;-75
2023/10/30 06:56:11;;;;;;;;;;;11.70;99.90;;;;;;7331736;19;111139;-75
2023/10/30 06:58:38;;;;;;;;;;;11.70;99.90;;;;;;7332673;19;110301;-75
2023/10/30 07:01:05;;;;;;;;;;;11.70;99.90;;;;;;7331280;19;109102;-74
2023/10/30 07:03:33;;;;;;;;;;;11.80;99.90;;;;;;7328447;19;111489;-74
2023/10/30 07:06:00;;;;;;;;;;;11.80;99.90;;;;;;7336768;19;109950;-76
2023/10/30 07:08:28;;;;;;;;;;;11.80;99.90;;;;;;7330552;19;109017;-74
2023/10/30 07:10:55;;;;;;;;;;;11.80;99.90;;;;;;7333507;19;109171;-74
2023/10/30 07:13:23;;;;;;;;;;;11.90;99.90;;;;;;7325210;19;110069;-74
2023/10/30 07:15:51;;;;;;;;;;;11.90;99.90;;;;;;7332429;19;108981;-75
2023/10/30 07:18:18;;;;;;;;;;;11.90;99.90;;;;;;7329930;19;109274;-74
2023/10/30 07:20:45;;;;;;;;;;;12.00;99.90;;;;;;7333726;19;109480;-75
2023/10/30 07:23:12;;;;;;;;;;;12.00;99.90;;;;;;7331933;19;110767;-74
2023/10/30 07:25:39;;;;;;;;;;;12.00;99.90;;;;;;7335664;19;108934;-75
2023/10/30 07:28:06;;;;;;;;;;;12.00;99.90;;;;;;7335863;19;110660;-75
2023/10/30 07:30:33;;;;;;;;;;;12.10;99.90;;;;;;7328693;19;109725;-75
2023/10/30 07:33:01;;;;;;;;;;;12.10;99.90;;;;;;7333170;19;109428;-73
2023/10/30 07:35:28;;;;;;;;;;;12.10;99.90;;;;;;7333132;19;108923;-75
2023/10/30 07:37:55;;;;;;;;;;;12.10;99.90;;;;;;7334187;19;108819;-75
2023/10/30 07:40:25;;;;;;;;;;;12.20;99.90;;;;;;7328912;19;111781;-75
2023/10/30 07:42:54;;;;;;;;;;;12.30;99.90;;;;;;7335238;19;109358;-74
2023/10/30 07:45:21;;;;;;;;;;;12.30;99.90;;;;;;7330789;19;111238;-75
2023/10/30 07:47:48;;;;;;;;;;;12.30;99.90;;;;;;7334612;19;110517;-76
2023/10/30 07:50:18;;;;;;;;;;;12.40;99.90;;;;;;7334789;19;108859;-75
2023/10/30 07:52:45;;;;;;;;;;;12.40;99.90;;;;;;7334228;19;109506;-75
2023/10/30 07:55:16;;;;;;;;;;;12.40;99.90;;;;;;7330244;19;118583;-75
2023/10/30 07:57:43;;;;;;;;;;;12.50;99.90;;;;;;7332159;19;108295;-75
2023/10/30 08:00:14;;;;;;;;;;;12.50;99.90;;;;;;7328803;19;111603;-75
2023/10/30 08:02:41;;;;;;;;;;;12.50;99.90;;;;;;7332794;19;111106;-74
2023/10/30 08:05:09;;;;;;;;;;;12.50;99.90;;;;;;7331442;19;109256;-75
2023/10/30 08:07:36;;;;;;;;;;;12.50;99.90;;;;;;7331383;19;110156;-74
2023/10/30 08:10:03;;;;;;;;;;;12.60;99.90;;;;;;7332057;19;108677;-75
2023/10/30 08:12:30;;;;;;;;;;;12.60;99.90;;;;;;7339192;19;109354;-74
2023/10/30 08:14:59;;;;;;;;;;;12.70;99.90;;;;;;7330761;19;108931;-74
2023/10/30 08:17:26;;;;;;;;;;;12.80;99.90;;;;;;7331712;19;109175;-74
2023/10/30 08:19:54;;;;;;;;;;;12.80;99.90;;;;;;7332544;19;109242;-75
2023/10/30 08:22:21;;;;;;;;;;;12.90;99.90;;;;;;7330884;19;109116;-75
2023/10/30 08:24:48;;;;;;;;;;;12.90;99.90;;;;;;7334210;19;109842;-78
2023/10/30 08:27:16;;;;;;;;;;;12.90;99.90;;;;;;7329079;19;109214;-77
2023/10/30 08:29:43;;;;;;;;;;;13.00;99.90;;;;;;7332872;19;109638;-76
2023/10/30 08:32:10;;;;;;;;;;;13.00;99.90;;;;;;7335479;19;108996;-79
2023/10/30 08:34:37;;;;;;;;;;;13.10;99.90;;;;;;7332454;19;109071;-78
2023/10/30 08:37:04;;;;;;;;;;;13.20;99.90;;;;;;7331041;19;110524;-75
2023/10/30 08:39:31;;;;;;;;;;;13.20;99.90;;;;;;7331508;19;110455;-76
2023/10/30 08:41:59;;;;;;;;;;;13.30;99.90;;;;;;7330480;19;109060;-75
2023/10/30 08:44:26;;;;;;;;;;;13.30;99.90;;;;;;7329374;19;109131;-75
2023/10/30 08:46:58;;;;;;;;;;;13.40;99.90;;;;;;7332176;19;110106;-75
2023/10/30 08:49:25;;;;;;;;;;;13.40;99.90;;;;;;7327071;19;110126;-75
2023/10/30 08:51:52;;;;;;;;;;;13.50;99.90;;;;;;7329262;19;110150;-75
2023/10/30 08:54:30;;;;;;;;;;;13.50;99.90;;;;;;7337255;19;109155;-75
2023/10/30 08:56:58;;;;;;;;;;;13.60;99.90;;;;;;7332898;19;108203;-75
2023/10/30 08:59:40;;;;;;;;;;;13.60;99.90;;;;;;7328018;19;109182;-75
2023/10/30 09:02:07;;;;;;;;;;;13.70;99.90;;;;;;7328891;19;111820;-75
2023/10/30 09:04:36;;;;;;;;;;;13.80;99.90;;;;;;7329204;19;109336;-74
2023/10/30 09:07:03;;;;;;;;;;;13.80;99.90;;;;;;7332187;19;111802;-75
2023/10/30 09:09:32;;;;;;;;;;;13.90;99.90;;;;;;7330355;19;109881;-75
2023/10/30 09:12:00;;;;;;;;;;;13.90;99.90;;;;;;7327651;19;110768;-74
2023/10/30 09:14:27;;;;;;;;;;;13.90;99.90;;;;;;7326146;19;112829;-75
2023/10/30 09:16:55;;;;;;;;;;;13.90;99.90;;;;;;7333772;19;109160;-75
2023/10/30 09:19:22;;;;;;;;;;;14.00;99.90;;;;;;7331576;19;110721;-75
2023/10/30 09:21:50;;;;;;;;;;;14.00;99.90;;;;;;7332732;19;113212;-74
2023/10/30 09:24:21;;;;;;;;;;;14.00;99.90;;;;;;7334449;19;109610;-74
2023/10/30 09:26:48;;;;;;;;;;;14.00;99.90;;;;;;7332088;19;109996;-74
2023/10/30 09:29:15;;;;;;;;;;;14.00;99.90;;;;;;7332777;19;109126;-74
2023/10/30 09:34:53;;;;;;;;;;;14.10;99.90;;;;;;7334684;19;109441;-74
2023/10/30 09:37:20;;;;;;;;;;;14.10;99.90;;;;;;7337020;19;111058;-74
2023/10/30 09:39:47;;;;;;;;;;;14.10;99.90;;;;;;7340712;19;110056;-74
2023/10/30 09:42:15;;;;;;;;;;;14.20;99.90;;;;;;7335193;19;109063;-75
2023/10/30 09:44:42;;;;;;;;;;;14.20;99.90;;;;;;7336344;19;110628;-74
2023/10/30 09:47:10;;;;;;;;;;;14.20;99.90;;;;;;7334655;19;109833;-74
2023/10/30 09:49:38;;;;;;;;;;;14.20;99.90;;;;;;7339042;19;108581;-74
2023/10/30 09:52:07;;;;;;;;;;;14.20;99.90;;;;;;7334632;19;110802;-74
2023/10/30 09:54:35;;;;;;;;;;;14.20;99.90;;;;;;7333117;19;110464;-74
2023/10/30 09:57:03;;;;;;;;;;;14.20;99.90;;;;;;7331424;19;109926;-74
2023/10/30 09:59:32;;;;;;;;;;;14.20;99.90;;;;;;7337951;19;108306;-74
2023/10/30 10:02:00;;;;;;;;;;;14.20;99.90;;;;;;7338195;19;112097;-74
2023/10/30 10:04:27;;;;;;;;;;;14.30;99.90;;;;;;7337069;19;109714;-74
2023/10/30 10:06:54;;;;;;;;;;;14.30;99.90;;;;;;7334924;19;110671;-74
2023/10/30 10:09:22;;;;;;;;;;;14.30;99.90;;;;;;7335693;19;108669;-74
2023/10/30 10:11:49;;;;;;;;;;;14.30;99.90;;;;;;7338040;19;108829;-76
2023/10/30 10:14:16;;;;;;;;;;;14.30;99.90;;;;;;7337713;19;109015;-74
2023/10/30 10:16:44;;;;;;;;;;;14.30;99.90;;;;;;7336241;19;109953;-74
2023/10/30 10:19:19;;;;;;;;;;;14.30;99.90;;;;;;7332852;19;109022;-75
2023/10/30 10:21:49;;;;;;;;;;;14.40;99.90;;;;;;7337004;19;109639;-75
2023/10/30 10:24:27;;;;;;;;;;;14.40;99.90;;;;;;7339813;19;109067;-74
2023/10/30 10:26:56;;;;;;;;;;;14.40;99.90;;;;;;7335876;19;109268;-74
2023/10/30 10:29:23;;;;;;;;;;;14.50;99.90;;;;;;7331129;19;108598;-74
2023/10/30 10:31:51;;;;;;;;;;;14.50;99.90;;;;;;7336447;19;108869;-74
2023/10/30 10:34:19;;;;;;;;;;;14.60;99.90;;;;;;7330500;19;109179;-75
2023/10/30 10:36:46;;;;;;;;;;;14.60;99.90;;;;;;7339608;19;109344;-74
2023/10/30 10:39:14;;;;;;;;;;;14.70;99.90;;;;;;7334915;19;110425;-74
2023/10/30 10:41:42;;;;;;;;;;;14.80;99.90;;;;;;7333504;19;109254;-74
2023/10/30 10:44:12;;;;;;;;;;;14.80;99.90;;;;;;7343249;19;108794;-74
2023/10/30 10:46:40;;;;;;;;;;;14.90;99.90;;;;;;7334199;19;111571;-74
2023/10/30 10:49:07;;;;;;;;;;;14.90;99.90;;;;;;7336709;19;109056;-74
2023/10/30 10:51:35;;;;;;;;;;;14.90;99.90;;;;;;7331893;19;109558;-74
2023/10/30 10:54:06;;;;;;;;;;;14.90;99.90;;;;;;7333683;19;110106;-74
2023/10/30 10:56:36;;;;;;;;;;;14.90;99.90;;;;;;7336002;19;108842;-75
2023/10/30 10:59:06;;;;;;;;;;;15.00;99.90;;;;;;7334064;19;108315;-74
2023/10/30 11:01:36;;;;;;;;;;;15.00;99.90;;;;;;7335552;19;109565;-74
2023/10/30 11:04:04;;;;;;;;;;;15.00;99.90;;;;;;7331800;19;108943;-74
2023/10/30 11:06:36;;;;;;;;;;;15.00;99.90;;;;;;7338312;19;108292;-74
2023/10/30 11:09:08;;;;;;;;;;;15.00;99.90;;;;;;7333317;19;109978;-75
2023/10/30 11:11:39;;;;;;;;;;;15.00;99.90;;;;;;7330640;19;109386;-74
2023/10/30 11:14:09;;;;;;;;;;;15.00;99.90;;;;;;7333034;19;109826;-74
2023/10/30 11:17:03;;;;;;;;;;;15.00;99.90;;;;;;7334296;19;109415;-74
2023/10/30 11:19:37;;;;;;;;;;;15.00;99.90;;;;;;7335069;19;109304;-75
2023/10/30 11:22:04;;;;;;;;;;;15.00;99.90;;;;;;7333754;19;109193;-74
2023/10/30 11:24:38;;;;;;;;;;;15.10;99.90;;;;;;7333306;19;109592;-74
2023/10/30 11:27:25;;;;;;;;;;;15.10;99.90;;;;;;7336567;19;109528;-74
2023/10/30 11:29:54;;;;;;;;;;;15.10;99.90;;;;;;7343634;19;110301;-75
2023/10/30 11:32:23;;;;;;;;;;;15.00;99.90;;;;;;7334214;19;109410;-75
2023/10/30 11:34:50;;;;;;;;;;;15.10;99.90;;;;;;7335157;19;110175;-74
2023/10/30 11:37:18;;;;;;;;;;;15.10;99.90;;;;;;7332930;19;108817;-76
2023/10/30 11:39:48;;;;;;;;;;;15.10;99.90;;;;;;7333310;19;108580;-77
2023/10/30 11:42:22;;;;;;;;;;;15.10;99.90;;;;;;7335448;19;109758;-75
2023/10/30 11:44:49;;;;;;;;;;;15.20;99.90;;;;;;7336977;19;112777;-77
2023/10/30 11:47:22;;;;;;;;;;;15.20;99.90;;;;;;7332568;19;109446;-78
2023/10/30 11:49:49;;;;;;;;;;;15.20;99.90;;;;;;7336669;19;109767;-76
2023/10/30 11:52:19;;;;;;;;;;;15.20;99.90;;;;;;7340184;19;108311;-75
2023/10/30 11:54:48;;;;;;;;;;;15.30;99.90;;;;;;7334389;19;109136;-74
2023/10/30 11:57:16;;;;;;;;;;;15.30;99.90;;;;;;7334290;19;109060;-75
2023/10/30 11:59:43;;;;;;;;;;;15.30;99.90;;;;;;7331866;19;109063;-75
2023/10/30 12:02:10;;;;;;;;;;;15.20;99.90;;;;;;7327602;19;110484;-75
2023/10/30 12:04:37;;;;;;;;;;;15.20;99.90;;;;;;7332182;19;109154;-74
2023/10/30 12:07:05;;;;;;;;;;;15.20;99.90;;;;;;7333038;19;110357;-75
2023/10/30 12:09:32;;;;;;;;;;;15.20;99.90;;;;;;7334539;19;110340;-74
2023/10/30 12:11:59;;;;;;;;;;;15.20;99.90;;;;;;7334284;19;109181;-74
2023/10/30 12:14:28;;;;;;;;;;;15.20;99.90;;;;;;7337853;19;109171;-74
2023/10/30 12:16:55;;;;;;;;;;;15.20;99.90;;;;;;7334745;19;109945;-74
2023/10/30 12:19:25;;;;;;;;;;;15.20;99.90;;;;;;7333307;19;109682;-74
2023/10/30 12:21:54;;;;;;;;;;;15.10;99.90;;;;;;7333651;19;109488;-74
2023/10/30 12:24:22;;;;;;;;;;;15.10;99.90;;;;;;7333573;19;109360;-74
2023/10/30 12:26:49;;;;;;;;;;;15.10;99.90;;;;;;7333940;19;109761;-75
2023/10/30 12:29:21;;;;;;;;;;;15.10;99.90;;;;;;7332356;19;110007;-75
2023/10/30 12:32:03;;;;;;;;;;;15.10;99.90;;;;;;7332455;19;108418;-74
2023/10/30 12:34:34;;;;;;;;;;;15.10;99.90;;;;;;7333241;19;108851;-74
2023/10/30 12:37:23;;;;;;;;;;;15.10;99.90;;;;;;7338022;19;109221;-74
2023/10/30 12:40:01;;;;;;;;;;;15.10;99.90;;;;;;7334434;19;109147;-75
2023/10/30 12:42:28;;;;;;;;;;;15.10;99.90;;;;;;7328036;19;113616;-74
2023/10/30 12:44:55;;;;;;;;;;;15.20;99.90;;;;;;7331693;19;109545;-74
2023/10/30 12:47:22;;;;;;;;;;;15.20;99.90;;;;;;7330685;19;109406;-74
2023/10/30 12:49:49;;;;;;;;;;;15.10;99.90;;;;;;7330321;19;110669;-74
2023/10/30 12:52:17;;;;;;;;;;;15.10;99.90;;;;;;7329842;19;109086;-74
2023/10/30 12:54:44;;;;;;;;;;;15.10;99.90;;;;;;7330451;19;109419;-74
2023/10/30 12:57:11;;;;;;;;;;;15.10;99.90;;;;;;7335744;19;109363;-74
2023/10/30 13:02:14;;;;;;;;;;;15.10;99.90;;;;;;7339342;19;109112;-91
2023/10/30 13:04:41;;;;;;;;;;;15.10;99.90;;;;;;7345064;19;108956;-92
2023/10/30 13:07:12;;;;;;;;;;;15.10;99.90;;;;;;7346364;19;111037;-93
2023/10/30 13:09:40;;;;;;;;;;;15.10;99.90;;;;;;7345533;19;113014;-92
2023/10/30 13:12:08;;;;;;;;;;;15.10;99.90;;;;;;7341309;19;108961;-92
2023/10/30 13:14:37;;;;;;;;;;;15.10;99.90;;;;;;7344825;19;111497;-91
2023/10/30 13:17:05;;;;;;;;;;;15.10;99.90;;;;;;7341115;19;110277;-91
2023/10/30 13:19:32;;;;;;;;;;;15.10;99.90;;;;;;7347795;19;109219;-90
2023/10/30 13:22:00;;;;;;;;;;;15.10;99.90;;;;;;7345939;19;110016;-92
2023/10/30 13:24:28;;;;;;;;;;;15.10;99.90;;;;;;7339626;19;109871;-92
2023/10/30 13:26:55;;;;;;;;;;;15.10;99.90;;;;;;7343572;19;111957;-90
2023/10/30 13:29:22;;;;;;;;;;;15.10;99.90;;;;;;7340011;19;109981;-92
2023/10/30 13:31:55;;;;;;;;;;;15.00;99.90;;;;;;7342293;19;109234;-93
2023/10/30 13:34:22;;;;;;;;;;;15.00;99.90;;;;;;7341652;19;109274;-94
2023/10/30 13:36:58;;;;;;;;;;;15.00;99.90;;;;;;7340555;19;110556;-90
2023/10/30 13:39:35;;;;;;;;;;;14.90;99.90;;;;;;7340775;19;110759;-89
2023/10/30 13:42:02;;;;;;;;;;;14.90;99.90;;;;;;7348840;19;109007;-90
2023/10/30 13:44:30;;;;;;;;;;;14.80;99.90;;;;;;7341430;19;108540;-93
2023/10/30 13:46:59;;;;;;;;;;;14.90;99.90;;;;;;7341845;19;109102;-92
2023/10/30 13:49:28;;;;;;;;;;;14.80;99.90;;;;;;7341475;19;111592;-92
2023/10/30 13:51:55;;;;;;;;;;;14.80;99.90;;;;;;7343501;19;108941;-93
2023/10/30 13:54:26;;;;;;;;;;;14.80;99.90;;;;;;7340320;19;111096;-91
2023/10/30 13:56:53;;;;;;;;;;;14.80;99.90;;;;;;7340378;19;110500;-91
2023/10/30 13:59:20;;;;;;;;;;;14.80;99.90;;;;;;7340603;19;109625;-92
2023/10/30 14:01:50;;;;;;;;;;;14.80;99.90;;;;;;7341574;19;111764;-92
2023/10/30 14:04:20;;;;;;;;;;;14.80;99.90;;;;;;7343803;19;110369;-94
2023/10/30 14:06:49;;;;;;;;;;;14.80;99.90;;;;;;7342105;19;109279;-91
2023/10/30 14:09:16;;;;;;;;;;;14.70;99.90;;;;;;7340284;19;108703;-92
2023/10/30 14:11:44;;;;;;;;;;;14.80;99.90;;;;;;7338861;19;108930;-91
2023/10/30 14:14:11;;;;;;;;;;;14.70;99.90;;;;;;7341176;19;111910;-90